sensor_id;sensor_type;location;lat;lon;timestamp;temperature;humidity
5850;DHT22;2951;47.712;9.400;2022-07-06T00:00:18;18.20;99.90
5850;DHT22;2951;47.712;9.400;2022-07-06T00:02:44;18.20;99.90
5850;DHT22;2951;47.712;9.400;2022-07-06T00:05:11;18.20;99.90
5850;DHT22;2951;47.712;9.400;2022-07-06T00:07:38;18.10;99.90
5850;DHT22;2951;47.712;9.400;2022-07-06T00:10:05;18.00;99.90
5850;DHT22;2951;47.712;9.400;2022-07-06T00:12:32;18.00;99.90
5850;DHT22;2951;47.712;9.400;2022-07-06T00:14:58;17.90;99.90
5850;DHT22;2951;47.712;9.400;2022-07-06T00:17:25;17.80;99.90
5850;DHT22;2951;47.712;9.400;2022-07-06T00:19:52;17.70;99.90
5850;DHT22;2951;47.712;9.400;2022-07-06T00:22:20;17.70;99.90
5850;DHT22;2951;47.712;9.400;2022-07-06T00:24:47;17.60;99.90
5850;DHT22;2951;47.712;9.400;2022-07-06T00:27:14;17.50;99.90
5850;DHT22;2951;47.712;9.400;2022-07-06T00:29:40;17.50;99.90
5850;DHT22;2951;47.712;9.400;2022-07-06T00:32:10;17.50;99.90
5850;DHT22;2951;47.712;9.400;2022-07-06T00:34:38;17.50;99.90
5850;DHT22;2951;47.712;9.400;2022-07-06T00:37:06;17.40;99.90
5850;DHT22;2951;47.712;9.400;2022-07-06T00:39:33;17.30;99.90
5850;DHT22;2951;47.712;9.400;2022-07-06T00:42:00;17.20;99.90
5850;DHT22;2951;47.712;9.400;2022-07-06T00:44:27;17.20;99.90
5850;DHT22;2951;47.712;9.400;2022-07-06T00:46:55;17.10;99.90
5850;DHT22;2951;47.712;9.400;2022-07-06T00:49:22;17.20;99.90
5850;DHT22;2951;47.712;9.400;2022-07-06T00:52:07;17.20;99.90
5850;DHT22;2951;47.712;9.400;2022-07-06T00:54:33;17.10;99.90
5850;DHT22;2951;47.712;9.400;2022-07-06T00:57:00;17.20;99.90
5850;DHT22;2951;47.712;9.400;2022-07-06T00:59:27;17.10;99.90
5850;DHT22;2951;47.712;9.400;2022-07-06T01:01:54;17.10;99.90
5850;DHT22;2951;47.712;9.400;2022-07-06T01:04:21;17.10;99.90
5850;DHT22;2951;47.712;9.400;2022-07-06T01:06:48;17.00;99.90
5850;DHT22;2951;47.712;9.400;2022-07-06T01:09:15;17.00;99.90
5850;DHT22;2951;47.712;9.400;2022-07-06T01:11:43;16.90;99.90
5850;DHT22;2951;47.712;9.400;2022-07-06T01:14:09;17.00;99.90
5850;DHT22;2951;47.712;9.400;2022-07-06T01:16:37;16.90;99.90
5850;DHT22;2951;47.712;9.400;2022-07-06T01:19:04;16.90;99.90
5850;DHT22;2951;47.712;9.400;2022-07-06T01:21:31;17.00;99.90
5850;DHT22;2951;47.712;9.400;2022-07-06T01:23:57;16.90;99.90
5850;DHT22;2951;47.712;9.400;2022-07-06T01:26:24;16.90;99.90
5850;DHT22;2951;47.712;9.400;2022-07-06T01:28:51;16.80;99.90
5850;DHT22;2951;47.712;9.400;2022-07-06T01:31:22;16.90;99.90
5850;DHT22;2951;47.712;9.400;2022-07-06T01:33:49;16.90;99.90
5850;DHT22;2951;47.712;9.400;2022-07-06T01:36:16;16.80;99.90
5850;DHT22;2951;47.712;9.400;2022-07-06T01:38:47;16.80;99.90
5850;DHT22;2951;47.712;9.400;2022-07-06T01:41:14;16.80;99.90
5850;DHT22;2951;47.712;9.400;2022-07-06T01:43:40;16.60;99.90
5850;DHT22;2951;47.712;9.400;2022-07-06T01:46:07;16.50;99.90
5850;DHT22;2951;47.712;9.400;2022-07-06T01:48:34;16.50;99.90
5850;DHT22;2951;47.712;9.400;2022-07-06T01:51:01;16.50;99.90
5850;DHT22;2951;47.712;9.400;2022-07-06T01:53:28;16.40;99.90
5850;DHT22;2951;47.712;9.400;2022-07-06T01:55:54;16.40;99.90
5850;DHT22;2951;47.712;9.400;2022-07-06T01:58:21;16.40;99.90
5850;DHT22;2951;47.712;9.400;2022-07-06T02:00:48;16.00;99.90
5850;DHT22;2951;47.712;9.400;2022-07-06T02:03:15;15.70;99.90
5850;DHT22;2951;47.712;9.400;2022-07-06T02:05:42;15.70;99.90
5850;DHT22;2951;47.712;9.400;2022-07-06T02:08:08;15.60;99.90
5850;DHT22;2951;47.712;9.400;2022-07-06T02:10:35;15.80;99.90
5850;DHT22;2951;47.712;9.400;2022-07-06T02:13:02;15.90;99.90
5850;DHT22;2951;47.712;9.400;2022-07-06T02:15:30;16.00;99.90
5850;DHT22;2951;47.712;9.400;2022-07-06T02:17:58;16.00;99.90
5850;DHT22;2951;47.712;9.400;2022-07-06T02:20:24;15.90;99.90
5850;DHT22;2951;47.712;9.400;2022-07-06T02:22:51;15.90;99.90
5850;DHT22;2951;47.712;9.400;2022-07-06T02:25:18;16.00;99.90
5850;DHT22;2951;47.712;9.400;2022-07-06T02:27:44;16.00;99.90
5850;DHT22;2951;47.712;9.400;2022-07-06T02:30:11;16.00;99.90
5850;DHT22;2951;47.712;9.400;2022-07-06T02:32:38;16.10;99.90
5850;DHT22;2951;47.712;9.400;2022-07-06T02:35:05;16.00;99.90
5850;DHT22;2951;47.712;9.400;2022-07-06T02:37:31;16.00;99.90
5850;DHT22;2951;47.712;9.400;2022-07-06T02:39:58;16.00;99.90
5850;DHT22;2951;47.712;9.400;2022-07-06T02:42:25;16.00;99.90
5850;DHT22;2951;47.712;9.400;2022-07-06T02:44:54;16.00;99.90
5850;DHT22;2951;47.712;9.400;2022-07-06T02:47:21;15.90;99.90
5850;DHT22;2951;47.712;9.400;2022-07-06T02:49:48;15.90;99.90
5850;DHT22;2951;47.712;9.400;2022-07-06T02:52:15;15.80;99.90
5850;DHT22;2951;47.712;9.400;2022-07-06T02:54:41;15.90;99.90
5850;DHT22;2951;47.712;9.400;2022-07-06T02:57:08;15.90;99.90
5850;DHT22;2951;47.712;9.400;2022-07-06T02:59:35;15.90;99.90
5850;DHT22;2951;47.712;9.400;2022-07-06T03:02:06;15.80;99.90
5850;DHT22;2951;47.712;9.400;2022-07-06T03:04:33;15.70;99.90
5850;DHT22;2951;47.712;9.400;2022-07-06T03:07:00;15.60;99.90
5850;DHT22;2951;47.712;9.400;2022-07-06T03:09:26;15.60;99.90
5850;DHT22;2951;47.712;9.400;2022-07-06T03:11:53;15.60;99.90
5850;DHT22;2951;47.712;9.400;2022-07-06T03:14:20;15.60;99.90
5850;DHT22;2951;47.712;9.400;2022-07-06T03:16:47;15.50;99.90
5850;DHT22;2951;47.712;9.400;2022-07-06T03:19:16;15.50;99.90
5850;DHT22;2951;47.712;9.400;2022-07-06T03:21:43;15.50;99.90
5850;DHT22;2951;47.712;9.400;2022-07-06T03:24:10;15.40;99.90
5850;DHT22;2951;47.712;9.400;2022-07-06T03:26:36;15.40;99.90
5850;DHT22;2951;47.712;9.400;2022-07-06T03:29:03;15.50;99.90
5850;DHT22;2951;47.712;9.400;2022-07-06T03:31:30;15.50;99.90
5850;DHT22;2951;47.712;9.400;2022-07-06T03:33:56;15.40;99.90
5850;DHT22;2951;47.712;9.400;2022-07-06T03:36:23;15.40;99.90
5850;DHT22;2951;47.712;9.400;2022-07-06T03:38:50;15.40;99.90
5850;DHT22;2951;47.712;9.400;2022-07-06T03:41:16;15.30;99.90
5850;DHT22;2951;47.712;9.400;2022-07-06T03:43:43;15.40;99.90
5850;DHT22;2951;47.712;9.400;2022-07-06T03:46:10;15.30;99.90
5850;DHT22;2951;47.712;9.400;2022-07-06T03:48:36;15.30;99.90
5850;DHT22;2951;47.712;9.400;2022-07-06T03:51:03;15.40;99.90
5850;DHT22;2951;47.712;9.400;2022-07-06T03:53:30;15.40;99.90
5850;DHT22;2951;47.712;9.400;2022-07-06T03:55:57;15.40;99.90
5850;DHT22;2951;47.712;9.400;2022-07-06T03:58:42;15.40;99.90
5850;DHT22;2951;47.712;9.400;2022-07-06T04:01:09;15.30;99.90
5850;DHT22;2951;47.712;9.400;2022-07-06T04:03:36;15.40;99.90
5850;DHT22;2951;47.712;9.400;2022-07-06T04:06:02;15.20;99.90
5850;DHT22;2951;47.712;9.400;2022-07-06T04:08:29;15.00;99.90
5850;DHT22;2951;47.712;9.400;2022-07-06T04:10:56;15.10;99.90
5850;DHT22;2951;47.712;9.400;2022-07-06T04:13:22;15.20;99.90
5850;DHT22;2951;47.712;9.400;2022-07-06T04:15:51;15.20;99.90
5850;DHT22;2951;47.712;9.400;2022-07-06T04:18:18;15.40;99.90
5850;DHT22;2951;47.712;9.400;2022-07-06T04:20:45;15.40;99.90
5850;DHT22;2951;47.712;9.400;2022-07-06T04:23:12;15.40;99.90
5850;DHT22;2951;47.712;9.400;2022-07-06T04:25:39;15.40;99.90
5850;DHT22;2951;47.712;9.400;2022-07-06T04:28:05;15.50;99.90
5850;DHT22;2951;47.712;9.400;2022-07-06T04:30:32;15.40;99.90
5850;DHT22;2951;47.712;9.400;2022-07-06T04:32:59;15.40;99.90
5850;DHT22;2951;47.712;9.400;2022-07-06T04:35:25;15.40;99.90
5850;DHT22;2951;47.712;9.400;2022-07-06T04:37:52;15.50;99.90
5850;DHT22;2951;47.712;9.400;2022-07-06T04:40:19;15.50;99.90
5850;DHT22;2951;47.712;9.400;2022-07-06T04:42:45;15.50;99.90
5850;DHT22;2951;47.712;9.400;2022-07-06T04:45:12;15.60;99.90
5850;DHT22;2951;47.712;9.400;2022-07-06T04:47:39;15.70;99.90
5850;DHT22;2951;47.712;9.400;2022-07-06T04:50:06;15.70;99.90
5850;DHT22;2951;47.712;9.400;2022-07-06T04:52:32;15.80;99.90
5850;DHT22;2951;47.712;9.400;2022-07-06T04:54:59;15.90;99.90
5850;DHT22;2951;47.712;9.400;2022-07-06T04:57:26;15.90;99.90
5850;DHT22;2951;47.712;9.400;2022-07-06T04:59:54;15.90;99.90
5850;DHT22;2951;47.712;9.400;2022-07-06T05:02:21;16.00;99.90
5850;DHT22;2951;47.712;9.400;2022-07-06T05:04:48;16.10;99.90
5850;DHT22;2951;47.712;9.400;2022-07-06T05:07:15;16.20;99.90
5850;DHT22;2951;47.712;9.400;2022-07-06T05:09:41;16.30;99.90
5850;DHT22;2951;47.712;9.400;2022-07-06T05:12:12;16.40;99.90
5850;DHT22;2951;47.712;9.400;2022-07-06T05:14:39;16.50;99.90
5850;DHT22;2951;47.712;9.400;2022-07-06T05:17:06;16.60;99.90
5850;DHT22;2951;47.712;9.400;2022-07-06T05:19:32;16.70;99.90
5850;DHT22;2951;47.712;9.400;2022-07-06T05:21:59;16.80;99.90
5850;DHT22;2951;47.712;9.400;2022-07-06T05:24:26;16.90;99.90
5850;DHT22;2951;47.712;9.400;2022-07-06T05:26:53;17.10;99.90
5850;DHT22;2951;47.712;9.400;2022-07-06T05:29:19;17.20;99.90
5850;DHT22;2951;47.712;9.400;2022-07-06T05:31:46;17.40;99.90
5850;DHT22;2951;47.712;9.400;2022-07-06T05:34:13;17.40;99.90
5850;DHT22;2951;47.712;9.400;2022-07-06T05:36:39;17.60;99.90
5850;DHT22;2951;47.712;9.400;2022-07-06T05:39:06;17.70;99.90
5850;DHT22;2951;47.712;9.400;2022-07-06T05:41:33;17.70;99.90
5850;DHT22;2951;47.712;9.400;2022-07-06T05:43:59;17.70;99.90
5850;DHT22;2951;47.712;9.400;2022-07-06T05:46:26;17.80;99.90
5850;DHT22;2951;47.712;9.400;2022-07-06T05:48:53;17.80;99.90
5850;DHT22;2951;47.712;9.400;2022-07-06T05:51:38;17.80;99.90
5850;DHT22;2951;47.712;9.400;2022-07-06T05:54:05;17.80;99.90
5850;DHT22;2951;47.712;9.400;2022-07-06T05:56:31;17.80;99.90
5850;DHT22;2951;47.712;9.400;2022-07-06T05:58:58;17.90;99.90
5850;DHT22;2951;47.712;9.400;2022-07-06T06:01:25;18.00;99.90
5850;DHT22;2951;47.712;9.400;2022-07-06T06:03:52;18.10;99.90
5850;DHT22;2951;47.712;9.400;2022-07-06T06:06:19;18.20;99.90
5850;DHT22;2951;47.712;9.400;2022-07-06T06:08:45;18.40;99.90
5850;DHT22;2951;47.712;9.400;2022-07-06T06:11:12;18.40;99.90
5850;DHT22;2951;47.712;9.400;2022-07-06T06:13:39;18.50;99.90
5850;DHT22;2951;47.712;9.400;2022-07-06T06:16:06;18.50;99.90
5850;DHT22;2951;47.712;9.400;2022-07-06T06:18:33;18.60;99.90
5850;DHT22;2951;47.712;9.400;2022-07-06T06:21:06;18.60;99.90
5850;DHT22;2951;47.712;9.400;2022-07-06T06:23:33;18.70;99.90
5850;DHT22;2951;47.712;9.400;2022-07-06T06:25:59;18.90;99.90
5850;DHT22;2951;47.712;9.400;2022-07-06T06:28:26;19.00;99.90
5850;DHT22;2951;47.712;9.400;2022-07-06T06:30:53;19.10;99.90
5850;DHT22;2951;47.712;9.400;2022-07-06T06:33:20;19.20;99.90
5850;DHT22;2951;47.712;9.400;2022-07-06T06:35:48;19.20;99.90
5850;DHT22;2951;47.712;9.400;2022-07-06T06:38:15;19.20;99.90
5850;DHT22;2951;47.712;9.400;2022-07-06T06:40:42;19.40;99.90
5850;DHT22;2951;47.712;9.400;2022-07-06T06:43:09;19.50;99.90
5850;DHT22;2951;47.712;9.400;2022-07-06T06:45:36;19.60;99.90
5850;DHT22;2951;47.712;9.400;2022-07-06T06:48:03;19.70;99.90
5850;DHT22;2951;47.712;9.400;2022-07-06T06:50:29;19.60;99.90
5850;DHT22;2951;47.712;9.400;2022-07-06T06:52:56;19.50;99.90
5850;DHT22;2951;47.712;9.400;2022-07-06T06:55:23;19.50;99.90
5850;DHT22;2951;47.712;9.400;2022-07-06T06:57:50;19.50;99.90
5850;DHT22;2951;47.712;9.400;2022-07-06T07:00:16;19.60;99.90
5850;DHT22;2951;47.712;9.400;2022-07-06T07:02:44;19.80;99.90
5850;DHT22;2951;47.712;9.400;2022-07-06T07:05:11;19.90;99.90
5850;DHT22;2951;47.712;9.400;2022-07-06T07:07:37;20.00;99.90
5850;DHT22;2951;47.712;9.400;2022-07-06T07:10:05;20.10;99.90
5850;DHT22;2951;47.712;9.400;2022-07-06T07:12:32;20.10;99.90
5850;DHT22;2951;47.712;9.400;2022-07-06T07:15:00;20.20;99.90
5850;DHT22;2951;47.712;9.400;2022-07-06T07:17:27;20.30;99.90
5850;DHT22;2951;47.712;9.400;2022-07-06T07:19:54;20.30;99.90
5850;DHT22;2951;47.712;9.400;2022-07-06T07:22:23;20.30;99.90
5850;DHT22;2951;47.712;9.400;2022-07-06T07:24:50;20.20;99.90
5850;DHT22;2951;47.712;9.400;2022-07-06T07:27:17;20.10;99.90
5850;DHT22;2951;47.712;9.400;2022-07-06T07:29:44;20.20;99.90
5850;DHT22;2951;47.712;9.400;2022-07-06T07:32:11;20.10;99.90
5850;DHT22;2951;47.712;9.400;2022-07-06T07:34:37;20.20;99.90
5850;DHT22;2951;47.712;9.400;2022-07-06T07:37:04;20.30;99.90
5850;DHT22;2951;47.712;9.400;2022-07-06T07:39:31;20.20;99.90
5850;DHT22;2951;47.712;9.400;2022-07-06T07:41:57;20.40;99.90
5850;DHT22;2951;47.712;9.400;2022-07-06T07:44:24;20.60;99.90
5850;DHT22;2951;47.712;9.400;2022-07-06T07:46:53;20.70;99.90
5850;DHT22;2951;47.712;9.400;2022-07-06T07:49:21;20.80;99.90
5850;DHT22;2951;47.712;9.400;2022-07-06T07:51:48;20.90;99.90
5850;DHT22;2951;47.712;9.400;2022-07-06T07:54:15;21.00;99.90
5850;DHT22;2951;47.712;9.400;2022-07-06T07:56:42;21.00;99.90
5850;DHT22;2951;47.712;9.400;2022-07-06T07:59:09;21.20;99.90
5850;DHT22;2951;47.712;9.400;2022-07-06T08:01:35;21.10;99.90
5850;DHT22;2951;47.712;9.400;2022-07-06T08:04:02;21.30;99.90
5850;DHT22;2951;47.712;9.400;2022-07-06T08:06:29;21.40;99.90
5850;DHT22;2951;47.712;9.400;2022-07-06T08:08:56;21.30;99.90
5850;DHT22;2951;47.712;9.400;2022-07-06T08:11:23;21.40;99.90
5850;DHT22;2951;47.712;9.400;2022-07-06T08:13:49;21.50;99.90
5850;DHT22;2951;47.712;9.400;2022-07-06T08:16:16;21.50;99.90
5850;DHT22;2951;47.712;9.400;2022-07-06T08:18:43;21.60;99.90
5850;DHT22;2951;47.712;9.400;2022-07-06T08:21:10;21.70;99.90
5850;DHT22;2951;47.712;9.400;2022-07-06T08:23:54;21.60;99.90
5850;DHT22;2951;47.712;9.400;2022-07-06T08:26:21;21.50;99.90
5850;DHT22;2951;47.712;9.400;2022-07-06T08:28:48;21.70;99.90
5850;DHT22;2951;47.712;9.400;2022-07-06T08:31:15;21.60;99.90
5850;DHT22;2951;47.712;9.400;2022-07-06T08:34:02;21.70;99.90
5850;DHT22;2951;47.712;9.400;2022-07-06T08:36:29;21.70;99.90
5850;DHT22;2951;47.712;9.400;2022-07-06T08:38:56;21.90;99.90
5850;DHT22;2951;47.712;9.400;2022-07-06T08:41:24;22.00;99.90
5850;DHT22;2951;47.712;9.400;2022-07-06T08:43:52;22.10;99.90
5850;DHT22;2951;47.712;9.400;2022-07-06T08:46:19;21.90;99.90
5850;DHT22;2951;47.712;9.400;2022-07-06T08:48:46;21.90;99.90
5850;DHT22;2951;47.712;9.400;2022-07-06T08:51:14;21.90;99.90
5850;DHT22;2951;47.712;9.400;2022-07-06T08:53:44;21.90;99.90
5850;DHT22;2951;47.712;9.400;2022-07-06T08:56:12;21.90;99.90
5850;DHT22;2951;47.712;9.400;2022-07-06T08:58:39;21.90;99.90
5850;DHT22;2951;47.712;9.400;2022-07-06T09:01:09;21.90;99.90
5850;DHT22;2951;47.712;9.400;2022-07-06T09:03:35;21.70;99.90
5850;DHT22;2951;47.712;9.400;2022-07-06T09:06:02;21.90;99.90
5850;DHT22;2951;47.712;9.400;2022-07-06T09:08:31;21.90;99.90
5850;DHT22;2951;47.712;9.400;2022-07-06T09:10:58;21.80;99.90
5850;DHT22;2951;47.712;9.400;2022-07-06T09:13:25;21.80;99.90
5850;DHT22;2951;47.712;9.400;2022-07-06T09:15:52;22.00;99.90
5850;DHT22;2951;47.712;9.400;2022-07-06T09:18:27;21.90;99.90
5850;DHT22;2951;47.712;9.400;2022-07-06T09:20:53;21.90;99.90
5850;DHT22;2951;47.712;9.400;2022-07-06T09:23:20;22.20;99.90
5850;DHT22;2951;47.712;9.400;2022-07-06T09:25:49;22.50;99.90
5850;DHT22;2951;47.712;9.400;2022-07-06T09:28:16;22.70;99.90
5850;DHT22;2951;47.712;9.400;2022-07-06T09:30:43;22.40;99.90
5850;DHT22;2951;47.712;9.400;2022-07-06T09:33:10;22.40;99.90
5850;DHT22;2951;47.712;9.400;2022-07-06T09:35:39;22.60;99.90
5850;DHT22;2951;47.712;9.400;2022-07-06T09:38:07;22.90;99.90
5850;DHT22;2951;47.712;9.400;2022-07-06T09:40:35;23.00;99.90
5850;DHT22;2951;47.712;9.400;2022-07-06T09:45:35;22.80;99.90
5850;DHT22;2951;47.712;9.400;2022-07-06T09:48:05;23.10;99.90
5850;DHT22;2951;47.712;9.400;2022-07-06T09:50:39;23.30;99.90
5850;DHT22;2951;47.712;9.400;2022-07-06T09:53:06;23.40;99.90
5850;DHT22;2951;47.712;9.400;2022-07-06T09:55:33;23.50;99.90
5850;DHT22;2951;47.712;9.400;2022-07-06T09:58:00;23.30;99.90
5850;DHT22;2951;47.712;9.400;2022-07-06T10:00:26;23.60;99.90
5850;DHT22;2951;47.712;9.400;2022-07-06T10:02:53;23.90;99.90
5850;DHT22;2951;47.712;9.400;2022-07-06T10:05:22;23.70;99.90
5850;DHT22;2951;47.712;9.400;2022-07-06T10:07:56;23.80;99.90
5850;DHT22;2951;47.712;9.400;2022-07-06T10:10:29;24.10;99.90
5850;DHT22;2951;47.712;9.400;2022-07-06T10:12:56;23.90;99.90
5850;DHT22;2951;47.712;9.400;2022-07-06T10:15:26;23.80;99.90
5850;DHT22;2951;47.712;9.400;2022-07-06T10:17:54;23.90;99.90
5850;DHT22;2951;47.712;9.400;2022-07-06T10:20:21;24.00;99.90
5850;DHT22;2951;47.712;9.400;2022-07-06T10:22:48;24.00;99.90
5850;DHT22;2951;47.712;9.400;2022-07-06T10:25:16;24.10;99.90
5850;DHT22;2951;47.712;9.400;2022-07-06T10:27:43;24.10;99.90
5850;DHT22;2951;47.712;9.400;2022-07-06T10:30:11;24.30;99.90
5850;DHT22;2951;47.712;9.400;2022-07-06T10:32:38;24.10;99.90
5850;DHT22;2951;47.712;9.400;2022-07-06T10:35:05;24.20;99.90
5850;DHT22;2951;47.712;9.400;2022-07-06T10:37:32;24.30;99.90
5850;DHT22;2951;47.712;9.400;2022-07-06T10:40:00;24.10;99.90
5850;DHT22;2951;47.712;9.400;2022-07-06T10:42:46;24.00;99.90
5850;DHT22;2951;47.712;9.400;2022-07-06T10:45:20;24.30;99.90
5850;DHT22;2951;47.712;9.400;2022-07-06T10:48:15;24.10;99.90
5850;DHT22;2951;47.712;9.400;2022-07-06T10:50:36;24.00;99.90
5850;DHT22;2951;47.712;9.400;2022-07-06T10:53:03;23.80;99.90
5850;DHT22;2951;47.712;9.400;2022-07-06T10:55:37;24.20;99.90
5850;DHT22;2951;47.712;9.400;2022-07-06T10:58:04;24.30;99.90
5850;DHT22;2951;47.712;9.400;2022-07-06T11:00:51;24.40;99.90
5850;DHT22;2951;47.712;9.400;2022-07-06T11:03:37;24.40;99.90
5850;DHT22;2951;47.712;9.400;2022-07-06T11:06:08;24.50;99.90
5850;DHT22;2951;47.712;9.400;2022-07-06T11:08:53;24.50;99.90
5850;DHT22;2951;47.712;9.400;2022-07-06T11:13:56;24.50;99.90
5850;DHT22;2951;47.712;9.400;2022-07-06T11:16:25;24.30;99.90
5850;DHT22;2951;47.712;9.400;2022-07-06T11:19:00;24.50;99.90
5850;DHT22;2951;47.712;9.400;2022-07-06T11:21:38;24.60;99.90
5850;DHT22;2951;47.712;9.400;2022-07-06T11:24:05;24.70;99.90
5850;DHT22;2951;47.712;9.400;2022-07-06T11:26:34;24.80;99.90
5850;DHT22;2951;47.712;9.400;2022-07-06T11:29:06;24.90;99.90
5850;DHT22;2951;47.712;9.400;2022-07-06T11:31:35;24.80;99.90
5850;DHT22;2951;47.712;9.400;2022-07-06T11:34:04;25.00;99.90
5850;DHT22;2951;47.712;9.400;2022-07-06T11:36:31;25.00;99.90
5850;DHT22;2951;47.712;9.400;2022-07-06T11:39:01;25.10;99.90
5850;DHT22;2951;47.712;9.400;2022-07-06T11:41:28;25.20;99.90
5850;DHT22;2951;47.712;9.400;2022-07-06T11:43:55;25.00;99.90
5850;DHT22;2951;47.712;9.400;2022-07-06T11:48:53;25.20;99.90
5850;DHT22;2951;47.712;9.400;2022-07-06T11:51:20;25.20;99.90
5850;DHT22;2951;47.712;9.400;2022-07-06T11:53:47;25.30;99.90
5850;DHT22;2951;47.712;9.400;2022-07-06T11:56:20;25.40;99.90
5850;DHT22;2951;47.712;9.400;2022-07-06T11:58:54;25.20;99.90
5850;DHT22;2951;47.712;9.400;2022-07-06T12:01:22;25.30;99.90
5850;DHT22;2951;47.712;9.400;2022-07-06T12:03:57;25.60;99.90
5850;DHT22;2951;47.712;9.400;2022-07-06T12:06:25;25.50;99.90
5850;DHT22;2951;47.712;9.400;2022-07-06T12:08:53;25.70;99.90
5850;DHT22;2951;47.712;9.400;2022-07-06T12:11:28;25.80;99.90
5850;DHT22;2951;47.712;9.400;2022-07-06T12:13:56;25.70;99.90
5850;DHT22;2951;47.712;9.400;2022-07-06T12:16:31;25.50;99.90
5850;DHT22;2951;47.712;9.400;2022-07-06T12:18:58;25.60;99.90
5850;DHT22;2951;47.712;9.400;2022-07-06T12:21:30;25.80;99.90
5850;DHT22;2951;47.712;9.400;2022-07-06T12:23:57;26.00;99.90
5850;DHT22;2951;47.712;9.400;2022-07-06T12:26:26;25.90;99.90
5850;DHT22;2951;47.712;9.400;2022-07-06T12:29:08;25.80;99.90
5850;DHT22;2951;47.712;9.400;2022-07-06T12:31:44;25.80;99.90
5850;DHT22;2951;47.712;9.400;2022-07-06T12:39:11;26.10;99.90
5850;DHT22;2951;47.712;9.400;2022-07-06T12:41:49;26.10;99.90
5850;DHT22;2951;47.712;9.400;2022-07-06T12:44:20;26.20;99.90
5850;DHT22;2951;47.712;9.400;2022-07-06T12:46:48;26.40;99.90
5850;DHT22;2951;47.712;9.400;2022-07-06T12:49:20;26.50;99.90
5850;DHT22;2951;47.712;9.400;2022-07-06T12:54:20;26.60;99.90
5850;DHT22;2951;47.712;9.400;2022-07-06T12:59:23;26.30;99.90
5850;DHT22;2951;47.712;9.400;2022-07-06T13:01:50;26.50;99.90
5850;DHT22;2951;47.712;9.400;2022-07-06T13:04:18;26.40;99.90
5850;DHT22;2951;47.712;9.400;2022-07-06T13:06:46;26.40;99.90
5850;DHT22;2951;47.712;9.400;2022-07-06T13:09:13;26.40;99.90
5850;DHT22;2951;47.712;9.400;2022-07-06T13:11:41;26.50;99.90
5850;DHT22;2951;47.712;9.400;2022-07-06T13:14:07;26.70;99.90
5850;DHT22;2951;47.712;9.400;2022-07-06T13:16:35;26.70;99.90
5850;DHT22;2951;47.712;9.400;2022-07-06T13:19:02;26.70;99.90
5850;DHT22;2951;47.712;9.400;2022-07-06T13:21:29;27.10;99.90
5850;DHT22;2951;47.712;9.400;2022-07-06T13:23:56;26.70;99.90
5850;DHT22;2951;47.712;9.400;2022-07-06T13:26:23;26.40;99.90
5850;DHT22;2951;47.712;9.400;2022-07-06T13:28:49;26.60;99.90
5850;DHT22;2951;47.712;9.400;2022-07-06T13:31:16;26.60;99.90
5850;DHT22;2951;47.712;9.400;2022-07-06T13:33:43;26.70;99.90
5850;DHT22;2951;47.712;9.400;2022-07-06T13:36:10;26.90;99.90
5850;DHT22;2951;47.712;9.400;2022-07-06T13:38:36;27.10;99.90
5850;DHT22;2951;47.712;9.400;2022-07-06T13:41:03;27.10;99.90
5850;DHT22;2951;47.712;9.400;2022-07-06T13:43:30;26.80;99.90
5850;DHT22;2951;47.712;9.400;2022-07-06T13:46:03;27.00;99.90
5850;DHT22;2951;47.712;9.400;2022-07-06T13:48:30;26.70;99.90
5850;DHT22;2951;47.712;9.400;2022-07-06T13:50:57;27.00;99.90
5850;DHT22;2951;47.712;9.400;2022-07-06T13:53:23;27.30;99.90
5850;DHT22;2951;47.712;9.400;2022-07-06T13:55:51;27.00;99.90
5850;DHT22;2951;47.712;9.400;2022-07-06T13:58:18;27.20;99.90
5850;DHT22;2951;47.712;9.400;2022-07-06T14:00:45;27.40;99.90
5850;DHT22;2951;47.712;9.400;2022-07-06T14:03:12;27.50;99.90
5850;DHT22;2951;47.712;9.400;2022-07-06T14:05:39;28.00;99.90
5850;DHT22;2951;47.712;9.400;2022-07-06T14:08:05;28.50;99.90
5850;DHT22;2951;47.712;9.400;2022-07-06T14:10:32;28.70;99.90
5850;DHT22;2951;47.712;9.400;2022-07-06T14:12:59;29.40;99.90
5850;DHT22;2951;47.712;9.400;2022-07-06T14:15:26;29.80;99.90
5850;DHT22;2951;47.712;9.400;2022-07-06T14:17:53;29.60;99.90
5850;DHT22;2951;47.712;9.400;2022-07-06T14:20:20;29.00;99.90
5850;DHT22;2951;47.712;9.400;2022-07-06T14:22:46;28.80;99.90
5850;DHT22;2951;47.712;9.400;2022-07-06T14:25:13;28.90;99.90
5850;DHT22;2951;47.712;9.400;2022-07-06T14:27:40;28.80;99.90
5850;DHT22;2951;47.712;9.400;2022-07-06T14:30:07;29.10;99.90
5850;DHT22;2951;47.712;9.400;2022-07-06T14:32:34;29.10;99.90
5850;DHT22;2951;47.712;9.400;2022-07-06T14:35:00;29.40;99.90
5850;DHT22;2951;47.712;9.400;2022-07-06T14:37:27;29.80;99.90
5850;DHT22;2951;47.712;9.400;2022-07-06T14:39:54;29.80;99.90
5850;DHT22;2951;47.712;9.400;2022-07-06T14:42:21;29.40;99.90
5850;DHT22;2951;47.712;9.400;2022-07-06T14:44:47;29.00;99.90
5850;DHT22;2951;47.712;9.400;2022-07-06T14:47:14;29.80;99.90
5850;DHT22;2951;47.712;9.400;2022-07-06T14:49:41;30.20;99.90
5850;DHT22;2951;47.712;9.400;2022-07-06T14:52:07;30.60;99.90
5850;DHT22;2951;47.712;9.400;2022-07-06T14:54:36;30.50;99.90
5850;DHT22;2951;47.712;9.400;2022-07-06T14:57:03;30.50;99.90
5850;DHT22;2951;47.712;9.400;2022-07-06T14:59:30;30.30;99.90
5850;DHT22;2951;47.712;9.400;2022-07-06T15:01:57;29.80;99.90
5850;DHT22;2951;47.712;9.400;2022-07-06T15:04:24;29.70;99.90
5850;DHT22;2951;47.712;9.400;2022-07-06T15:06:51;29.80;99.90
5850;DHT22;2951;47.712;9.400;2022-07-06T15:09:21;29.80;99.90
5850;DHT22;2951;47.712;9.400;2022-07-06T15:11:48;29.90;99.90
5850;DHT22;2951;47.712;9.400;2022-07-06T15:14:14;30.50;99.90
5850;DHT22;2951;47.712;9.400;2022-07-06T15:16:43;31.00;99.90
5850;DHT22;2951;47.712;9.400;2022-07-06T15:19:10;30.40;99.90
5850;DHT22;2951;47.712;9.400;2022-07-06T15:21:39;30.10;99.90
5850;DHT22;2951;47.712;9.400;2022-07-06T15:24:06;30.40;99.90
5850;DHT22;2951;47.712;9.400;2022-07-06T15:26:33;30.20;99.90
5850;DHT22;2951;47.712;9.400;2022-07-06T15:29:00;29.90;99.90
5850;DHT22;2951;47.712;9.400;2022-07-06T15:31:26;30.70;99.90
5850;DHT22;2951;47.712;9.400;2022-07-06T15:33:53;30.90;99.90
5850;DHT22;2951;47.712;9.400;2022-07-06T15:36:20;31.90;99.90
5850;DHT22;2951;47.712;9.400;2022-07-06T15:38:47;31.40;99.90
5850;DHT22;2951;47.712;9.400;2022-07-06T15:41:13;31.10;99.90
5850;DHT22;2951;47.712;9.400;2022-07-06T15:43:40;30.80;99.90
5850;DHT22;2951;47.712;9.400;2022-07-06T15:46:07;30.40;99.90
5850;DHT22;2951;47.712;9.400;2022-07-06T15:48:34;29.90;99.90
5850;DHT22;2951;47.712;9.400;2022-07-06T15:51:01;29.00;99.90
5850;DHT22;2951;47.712;9.400;2022-07-06T15:53:27;28.70;99.90
5850;DHT22;2951;47.712;9.400;2022-07-06T15:55:55;28.90;99.90
5850;DHT22;2951;47.712;9.400;2022-07-06T15:58:23;29.10;99.90
5850;DHT22;2951;47.712;9.400;2022-07-06T16:00:50;29.30;99.90
5850;DHT22;2951;47.712;9.400;2022-07-06T16:03:17;29.00;99.90
5850;DHT22;2951;47.712;9.400;2022-07-06T16:05:44;28.50;99.90
5850;DHT22;2951;47.712;9.400;2022-07-06T16:08:31;28.30;99.90
5850;DHT22;2951;47.712;9.400;2022-07-06T16:11:08;28.30;99.90
5850;DHT22;2951;47.712;9.400;2022-07-06T16:13:35;28.90;99.90
5850;DHT22;2951;47.712;9.400;2022-07-06T16:16:04;28.50;99.90
5850;DHT22;2951;47.712;9.400;2022-07-06T16:18:31;28.70;99.90
5850;DHT22;2951;47.712;9.400;2022-07-06T16:20:59;28.60;99.90
5850;DHT22;2951;47.712;9.400;2022-07-06T16:23:26;28.80;99.90